createdAt,value
2023-02-14T00:00:05.053Z,103391.41
2023-02-14T00:02:32.804Z,103398.75
2023-02-14T00:05:00.609Z,103396.22
2023-02-14T00:07:28.438Z,103398.06
2023-02-14T00:09:56.178Z,103395.38
2023-02-14T00:12:25.274Z,103391.84
2023-02-14T00:15:10.309Z,103394.69
2023-02-14T00:17:38.019Z,103383.25
2023-02-14T00:20:06.948Z,103391.31
2023-02-14T00:22:34.620Z,103386.09
2023-02-14T00:25:02.368Z,103388.91
2023-02-14T00:27:31.636Z,103375.66
2023-02-14T00:30:02.581Z,103376.66
2023-02-14T00:32:31.124Z,103367.22
2023-02-14T00:34:58.885Z,103375.13
2023-02-14T00:37:26.592Z,103369.91
2023-02-14T00:39:54.368Z,103381.63
2023-02-14T00:42:22.126Z,103373.72
2023-02-14T00:44:51.182Z,103380.91
2023-02-14T00:47:19.180Z,103378.38
2023-02-14T00:49:47.005Z,103378.53
2023-02-14T00:52:14.795Z,103375.00
2023-02-14T00:54:42.559Z,103375.16
2023-02-14T00:57:10.391Z,103369.13
2023-02-14T00:59:38.148Z,103370.13
2023-02-14T01:02:07.369Z,103365.06
2023-02-14T01:04:35.323Z,103373.09
2023-02-14T01:07:03.072Z,103374.22
2023-02-14T01:09:30.816Z,103375.22
2023-02-14T01:11:58.541Z,103366.50
2023-02-14T01:14:26.260Z,103367.63
2023-02-14T01:16:54.086Z,103366.78
2023-02-14T01:19:23.152Z,103372.28
2023-02-14T01:21:50.861Z,103375.09
2023-02-14T01:24:18.613Z,103370.75
2023-02-14T01:26:46.328Z,103371.72
2023-02-14T01:29:14.042Z,103378.22
2023-02-14T01:31:42.072Z,103374.69
2023-02-14T01:34:09.995Z,103374.84
2023-02-14T01:36:40.839Z,103367.81
2023-02-14T01:39:11.599Z,103373.44
2023-02-14T01:41:41.416Z,103377.13
2023-02-14T01:44:47.456Z,103374.59
2023-02-14T01:47:15.626Z,103374.16
2023-02-14T01:49:47.545Z,103384.59
2023-02-14T01:52:19.686Z,103383.91
2023-02-14T01:55:01.390Z,103382.19
2023-02-14T01:57:35.801Z,103386.69
2023-02-14T02:00:17.851Z,103388.69
2023-02-14T02:02:45.853Z,103386.13
2023-02-14T02:05:14.469Z,103383.59
2023-02-14T02:07:43.844Z,103377.53
2023-02-14T02:10:11.998Z,103366.28
2023-02-14T02:12:40.001Z,103365.13
2023-02-14T02:15:09.123Z,103366.28
2023-02-14T02:17:50.020Z,103370.09
2023-02-14T02:20:44.572Z,103369.38
2023-02-14T02:23:48.212Z,103365.03
2023-02-14T02:26:38.242Z,103359.81
2023-02-14T02:29:35.734Z,103359.94
2023-02-14T02:32:28.593Z,103360.94
2023-02-14T02:35:18.828Z,103351.22
2023-02-14T02:37:59.476Z,103351.34
2023-02-14T02:40:40.305Z,103361.22
2023-02-14T02:43:17.754Z,103350.50
2023-02-14T02:46:09.701Z,103352.50
2023-02-14T02:48:43.453Z,103345.44
2023-02-14T02:51:34.740Z,103344.59
2023-02-14T02:54:08.102Z,103353.63
2023-02-14T02:56:47.462Z,103344.75
2023-02-14T02:59:19.810Z,103343.19
2023-02-14T03:01:53.350Z,103350.38
2023-02-14T03:04:40.225Z,103342.50
2023-02-14T03:07:23.272Z,103343.47
2023-02-14T03:09:53.921Z,103350.66
2023-02-14T03:12:47.659Z,103355.31
2023-02-14T03:15:23.086Z,103353.63
2023-02-14T03:18:02.917Z,103355.59
2023-02-14T03:20:40.059Z,103352.09
2023-02-14T03:23:15.826Z,103357.44
2023-02-14T03:25:51.033Z,103362.09
2023-02-14T03:28:24.762Z,103362.25
2023-02-14T03:31:03.230Z,103363.38
2023-02-14T03:33:36.896Z,103367.88
2023-02-14T03:36:11.562Z,103367.19
2023-02-14T03:38:45.188Z,103366.31
2023-02-14T03:41:15.943Z,103371.81
2023-02-14T03:43:48.240Z,103363.94
2023-02-14T03:46:21.231Z,103370.28
2023-02-14T03:48:51.561Z,103366.91
2023-02-14T03:51:22.098Z,103363.50
2023-02-14T03:53:54.119Z,103372.53
2023-02-14T03:56:31.092Z,103362.09
2023-02-14T03:59:00.379Z,103363.94
2023-02-14T04:01:33.682Z,103359.56
2023-02-14T04:04:02.807Z,103363.22
2023-02-14T04:06:30.522Z,103366.06
2023-02-14T04:08:59.724Z,103364.50
2023-02-14T04:11:27.918Z,103364.50
2023-02-14T04:13:55.591Z,103357.47
2023-02-14T04:16:23.312Z,103361.25
2023-02-14T04:19:08.445Z,103361.41
2023-02-14T04:21:36.161Z,103362.38
2023-02-14T04:24:05.859Z,103368.59
2023-02-14T04:26:33.643Z,103362.53
2023-02-14T04:29:01.342Z,103368.03
2023-02-14T04:31:29.087Z,103368.16
2023-02-14T04:33:57.016Z,103360.28
2023-02-14T04:36:24.689Z,103365.63
2023-02-14T04:38:52.680Z,103363.94
2023-02-14T04:41:21.737Z,103364.06
2023-02-14T04:43:49.429Z,103364.22
2023-02-14T04:46:17.132Z,103360.69
2023-02-14T04:48:44.880Z,103360.84
2023-02-14T04:51:12.647Z,103359.97
2023-02-14T04:53:40.527Z,103357.44
2023-02-14T04:56:09.159Z,103360.25
2023-02-14T04:58:38.228Z,103364.63
2023-02-14T05:01:06.000Z,103360.41
2023-02-14T05:03:33.792Z,103346.88
2023-02-14T05:06:01.529Z,103347.31
2023-02-14T05:08:29.240Z,103338.56
2023-02-14T05:10:57.223Z,103337.72
2023-02-14T05:13:25.090Z,103342.22
2023-02-14T05:15:54.158Z,103346.75
2023-02-14T05:18:22.351Z,103336.31
2023-02-14T05:20:50.782Z,103334.47
2023-02-14T05:23:18.751Z,103329.28
2023-02-14T05:25:49.122Z,103328.44
2023-02-14T05:28:17.611Z,103325.75
2023-02-14T05:30:45.329Z,103330.13
2023-02-14T05:33:14.431Z,103331.25
2023-02-14T05:35:42.215Z,103325.91
2023-02-14T05:38:09.920Z,103325.06
2023-02-14T05:40:37.633Z,103322.50
2023-02-14T05:43:05.309Z,103332.38
2023-02-14T05:45:33.068Z,103328.00
2023-02-14T05:48:00.970Z,103329.00
2023-02-14T05:50:30.215Z,103331.66
2023-02-14T05:52:58.134Z,103319.28
2023-02-14T05:55:26.298Z,103320.25
2023-02-14T05:57:53.996Z,103327.56
2023-02-14T06:00:23.177Z,103321.66
2023-02-14T06:02:52.381Z,103324.19
2023-02-14T06:05:20.259Z,103321.53
2023-02-14T06:07:50.694Z,103338.56
2023-02-14T06:10:18.976Z,103335.03
2023-02-14T06:12:46.780Z,103335.16
2023-02-14T06:15:14.485Z,103330.09
2023-02-14T06:17:42.221Z,103335.44
2023-02-14T06:20:10.864Z,103343.47
2023-02-14T06:22:39.144Z,103335.00
2023-02-14T06:25:08.905Z,103338.38
2023-02-14T06:27:36.638Z,103343.03
2023-02-14T06:30:05.119Z,103337.81
2023-02-14T06:32:32.898Z,103338.81
2023-02-14T06:35:00.622Z,103343.44
2023-02-14T06:37:28.343Z,103346.97
2023-02-14T06:39:56.061Z,103342.72
2023-02-14T06:42:25.156Z,103348.09
2023-02-14T06:44:52.858Z,103347.25
2023-02-14T06:47:20.711Z,103351.72
2023-02-14T06:49:48.401Z,103351.88
2023-02-14T06:52:16.107Z,103350.19
2023-02-14T06:54:44.660Z,103351.03
2023-02-14T06:57:12.401Z,103353.41
2023-02-14T06:59:41.477Z,103345.38
2023-02-14T07:02:11.639Z,103348.91
2023-02-14T07:04:39.435Z,103350.59
2023-02-14T07:07:07.168Z,103342.56
2023-02-14T07:09:34.930Z,103347.91
2023-02-14T07:12:02.651Z,103352.81
2023-02-14T07:14:30.370Z,103350.44
2023-02-14T07:16:59.443Z,103363.78
2023-02-14T07:19:27.272Z,103358.56
2023-02-14T07:21:54.987Z,103360.13
2023-02-14T07:24:22.812Z,103360.13
2023-02-14T07:26:50.484Z,103356.75
2023-02-14T07:29:18.320Z,103354.06
2023-02-14T07:31:46.237Z,103361.97
2023-02-14T07:34:15.366Z,103359.56
2023-02-14T07:36:44.116Z,103355.06
2023-02-14T07:39:12.321Z,103357.72
2023-02-14T07:41:40.008Z,103355.75
2023-02-14T07:44:07.742Z,103355.91
2023-02-14T07:46:35.464Z,103358.56
2023-02-14T07:49:03.241Z,103361.25
2023-02-14T07:51:32.449Z,103360.41
2023-02-14T07:54:00.222Z,103361.38
2023-02-14T07:56:27.966Z,103358.72
2023-02-14T07:58:55.697Z,103347.03
2023-02-14T08:01:23.495Z,103356.19
2023-02-14T08:03:51.589Z,103358.84
2023-02-14T08:06:20.235Z,103342.81
2023-02-14T08:08:49.582Z,103344.63
2023-02-14T08:11:37.386Z,103351.69
2023-02-14T08:14:06.040Z,103336.47
2023-02-14T08:16:34.657Z,103335.63
2023-02-14T08:19:03.103Z,103340.13
2023-02-14T08:21:31.680Z,103340.97
2023-02-14T08:24:00.810Z,103340.97
2023-02-14T08:26:29.898Z,103345.34
2023-02-14T08:28:57.635Z,103348.03
2023-02-14T08:31:35.117Z,103346.06
2023-02-14T08:34:04.064Z,103338.88
2023-02-14T08:36:31.798Z,103338.03
2023-02-14T08:39:01.018Z,103344.38
2023-02-14T08:41:28.746Z,103345.22
2023-02-14T08:43:56.475Z,103346.91
2023-02-14T08:46:24.377Z,103347.63
2023-02-14T08:48:53.468Z,103347.47
2023-02-14T08:51:22.728Z,103351.97
2023-02-14T08:53:52.156Z,103345.78
2023-02-14T08:56:22.679Z,103340.44
2023-02-14T08:58:54.545Z,103342.97
2023-02-14T09:01:22.464Z,103345.53
2023-02-14T09:03:50.665Z,103344.81
2023-02-14T09:06:18.826Z,103338.47
2023-02-14T09:08:47.114Z,103345.53
2023-02-14T09:11:18.697Z,103348.91
2023-02-14T09:13:48.237Z,103342.84
2023-02-14T09:16:17.635Z,103349.03
2023-02-14T09:18:46.784Z,103345.53
2023-02-14T09:21:17.296Z,103339.19
2023-02-14T09:23:45.110Z,103346.09
2023-02-14T09:26:15.192Z,103338.78
2023-02-14T09:28:43.834Z,103344.13
2023-02-14T09:31:15.151Z,103346.66
2023-02-14T09:33:43.881Z,103336.97
2023-02-14T09:36:29.060Z,103343.00
2023-02-14T09:38:56.827Z,103334.00
2023-02-14T09:41:49.594Z,103332.19
2023-02-14T09:44:26.738Z,103335.69
2023-02-14T09:47:00.577Z,103326.69
2023-02-14T09:49:33.554Z,103331.91
2023-02-14T09:52:03.641Z,103322.06
2023-02-14T09:54:34.608Z,103327.94
2023-02-14T09:57:07.083Z,103329.50
2023-02-14T09:59:40.634Z,103330.22
2023-02-14T10:02:23.992Z,103320.22
2023-02-14T10:05:05.996Z,103323.47
2023-02-14T10:07:46.817Z,103317.84
2023-02-14T10:10:18.113Z,103322.91
2023-02-14T10:12:51.572Z,103313.91
2023-02-14T10:15:24.494Z,103320.94
2023-02-14T10:17:58.060Z,103311.94
2023-02-14T10:20:30.096Z,103316.16
2023-02-14T10:23:04.437Z,103310.69
2023-02-14T10:25:40.936Z,103314.78
2023-02-14T10:28:14.645Z,103306.47
2023-02-14T10:30:50.897Z,103302.66
2023-02-14T10:33:22.853Z,103303.38
2023-02-14T10:35:51.635Z,103298.72
2023-02-14T10:38:35.589Z,103294.94
2023-02-14T10:41:25.965Z,103291.97
2023-02-14T10:44:04.491Z,103295.22
2023-02-14T10:46:40.841Z,103291.41
2023-02-14T10:49:26.613Z,103295.50
2023-02-14T10:52:01.094Z,103276.75
2023-02-14T10:54:33.797Z,103284.38
2023-02-14T10:57:05.455Z,103286.75
2023-02-14T10:59:37.930Z,103280.28
2023-02-14T11:02:07.100Z,103276.63
2023-02-14T11:04:37.011Z,103272.81
2023-02-14T11:07:04.769Z,103283.22
2023-02-14T11:09:32.534Z,103274.06
2023-02-14T11:12:01.300Z,103276.31
2023-02-14T11:14:32.463Z,103272.50
2023-02-14T11:17:01.607Z,103265.88
2023-02-14T11:19:37.262Z,103262.06
2023-02-14T11:22:10.133Z,103260.78
2023-02-14T11:24:41.512Z,103257.81
2023-02-14T11:27:19.007Z,103261.06
2023-02-14T11:29:52.268Z,103253.56
2023-02-14T11:32:23.742Z,103246.94
2023-02-14T11:34:57.982Z,103248.34
2023-02-14T11:37:31.496Z,103248.88
2023-02-14T11:40:01.440Z,103246.91
2023-02-14T11:42:42.069Z,103243.09
2023-02-14T11:45:28.318Z,103236.75
2023-02-14T11:48:10.206Z,103233.19
2023-02-14T11:50:39.895Z,103226.22
2023-02-14T11:53:13.376Z,103217.78
2023-02-14T11:55:42.191Z,103210.25
2023-02-14T11:58:29.564Z,103204.75
2023-02-14T12:00:57.321Z,103200.59
2023-02-14T12:03:26.446Z,103199.41
2023-02-14T12:06:00.387Z,103195.38
2023-02-14T12:08:32.602Z,103193.97
2023-02-14T12:11:06.125Z,103188.53
2023-02-14T12:13:34.666Z,103185.41
2023-02-14T12:16:03.757Z,103182.97
2023-02-14T12:18:49.601Z,103181.78
2023-02-14T12:21:43.310Z,103174.41
2023-02-14T12:24:19.726Z,103168.66
2023-02-14T12:26:54.254Z,103159.50
2023-02-14T12:29:26.561Z,103158.41
2023-02-14T12:31:57.857Z,103148.66
2023-02-14T12:34:25.702Z,103161.88
2023-02-14T12:37:18.184Z,103153.78
2023-02-14T12:40:12.425Z,103157.78
2023-02-14T12:43:04.457Z,103144.00
2023-02-14T12:45:50.415Z,103145.16
2023-02-14T12:48:28.991Z,103144.63
2023-02-14T12:51:07.683Z,103141.25
2023-02-14T12:53:52.649Z,103138.88
2023-02-14T12:56:33.616Z,103139.03
2023-02-14T12:59:14.859Z,103122.09
2023-02-14T13:02:08.828Z,103125.78
2023-02-14T13:05:01.648Z,103124.94
2023-02-14T13:08:00.963Z,103121.25
2023-02-14T13:10:43.536Z,103116.06
2023-02-14T13:13:20.343Z,103113.88
2023-02-14T13:15:53.001Z,103114.72
2023-02-14T13:18:36.494Z,103111.19
2023-02-14T13:21:07.331Z,103106.69
2023-02-14T13:23:40.080Z,103099.31
2023-02-14T13:26:12.376Z,103096.34
2023-02-14T13:28:48.780Z,103088.19
2023-02-14T13:31:17.027Z,103093.97
2023-02-14T13:33:49.993Z,103081.97
2023-02-14T13:36:18.173Z,103085.34
2023-02-14T13:38:49.100Z,103076.97
2023-02-14T13:41:18.253Z,103078.81
2023-02-14T13:43:56.158Z,103074.78
2023-02-14T13:46:49.695Z,103071.75
2023-02-14T13:49:30.529Z,103072.75
2023-02-14T13:52:01.167Z,103068.38
2023-02-14T13:54:35.826Z,103068.38
2023-02-14T13:57:24.490Z,103066.34
2023-02-14T14:00:25.410Z,103056.97
2023-02-14T14:02:54.548Z,103051.09
2023-02-14T14:06:01.575Z,103048.56
2023-02-14T14:08:50.853Z,103051.44
2023-02-14T14:11:59.572Z,103047.22
2023-02-14T14:14:36.268Z,103037.81
2023-02-14T14:17:06.528Z,103045.03
2023-02-14T14:19:40.052Z,103042.34
2023-02-14T14:22:10.840Z,103045.19
2023-02-14T14:24:40.439Z,103044.34
2023-02-14T14:27:16.062Z,103043.53
2023-02-14T14:29:47.534Z,103044.19
2023-02-14T14:32:21.630Z,103042.53
2023-02-14T14:34:52.143Z,103027.22
2023-02-14T14:37:22.438Z,103026.03
2023-02-14T14:39:54.683Z,103034.56
2023-02-14T14:42:24.728Z,103021.09
2023-02-14T14:44:55.705Z,103020.56
2023-02-14T14:47:28.336Z,103020.50
2023-02-14T14:50:01.208Z,103027.81
2023-02-14T14:52:36.102Z,103027.28
2023-02-14T14:55:05.887Z,103019.72
2023-02-14T14:57:36.274Z,103020.97
2023-02-14T15:00:19.488Z,103021.50
2023-02-14T15:02:59.873Z,103013.97
2023-02-14T15:05:29.700Z,103021.25
2023-02-14T15:07:58.365Z,103012.19
2023-02-14T15:10:28.724Z,103008.31
2023-02-14T15:13:17.064Z,103018.75
2023-02-14T15:15:50.825Z,103011.19
2023-02-14T15:18:22.335Z,103012.56
2023-02-14T15:20:51.215Z,103001.31
2023-02-14T15:23:23.007Z,103010.72
2023-02-14T15:25:51.702Z,103013.91
2023-02-14T15:28:28.518Z,103006.38
2023-02-14T15:30:57.579Z,103018.78
2023-02-14T15:33:27.304Z,103012.06
2023-02-14T15:35:55.383Z,103013.94
2023-02-14T15:38:24.717Z,103013.25
2023-02-14T15:40:54.566Z,103012.41
2023-02-14T15:43:30.925Z,103014.25
2023-02-14T15:46:02.973Z,103020.66
2023-02-14T15:48:34.708Z,103017.97
2023-02-14T15:51:06.277Z,103015.28
2023-02-14T15:53:41.917Z,103004.66
2023-02-14T15:56:16.377Z,102999.06
2023-02-14T15:58:46.180Z,103002.19
2023-02-14T16:01:14.452Z,102996.59
2023-02-14T16:03:51.156Z,102995.53
2023-02-14T16:06:33.918Z,102992.84
2023-02-14T16:09:02.774Z,102998.91
2023-02-14T16:11:33.265Z,102997.94
2023-02-14T16:14:22.210Z,103005.38
2023-02-14T16:17:04.927Z,103001.03
2023-02-14T16:19:37.071Z,103002.75
2023-02-14T16:22:06.643Z,103002.44
2023-02-14T16:24:35.995Z,102997.72
2023-02-14T16:27:06.916Z,102998.91
2023-02-14T16:29:36.259Z,103006.50
2023-02-14T16:32:17.412Z,102997.09
2023-02-14T16:34:48.348Z,102992.72
2023-02-14T16:37:22.262Z,103000.13
2023-02-14T16:39:51.861Z,102998.44
2023-02-14T16:42:20.180Z,103005.84
2023-02-14T16:44:48.466Z,103000.81
2023-02-14T16:47:17.945Z,103006.34
2023-02-14T16:49:47.174Z,103006.34
2023-02-14T16:52:17.437Z,103004.84
2023-02-14T16:54:45.351Z,102993.41
2023-02-14T16:57:19.729Z,103008.72
2023-02-14T16:59:47.827Z,103000.97
2023-02-14T17:02:16.499Z,103009.38
2023-02-14T17:04:44.860Z,103019.13
2023-02-14T17:07:16.403Z,103014.94
2023-02-14T17:09:48.573Z,103014.94
2023-02-14T17:12:19.591Z,103021.31
2023-02-14T17:14:50.856Z,103009.91
2023-02-14T17:17:18.747Z,103021.66
2023-02-14T17:19:46.642Z,103013.59
2023-02-14T17:22:15.942Z,103017.28
2023-02-14T17:24:43.648Z,103014.94
2023-02-14T17:27:11.380Z,103020.63
2023-02-14T17:29:39.095Z,103018.56
2023-02-14T17:32:06.927Z,103021.38
2023-02-14T17:34:34.932Z,103019.84
2023-02-14T17:37:03.243Z,103024.13
2023-02-14T17:39:32.327Z,103013.09
2023-02-14T17:42:00.013Z,103015.09
2023-02-14T17:44:29.604Z,103015.88
2023-02-14T17:46:57.950Z,103005.84
2023-02-14T17:49:25.873Z,103005.69
2023-02-14T17:51:53.582Z,103008.13
2023-02-14T17:54:21.251Z,103007.00
2023-02-14T17:56:50.672Z,103011.09
2023-02-14T17:59:18.414Z,103014.81
2023-02-14T18:01:46.217Z,103017.38
2023-02-14T18:04:13.993Z,103017.38
2023-02-14T18:06:42.910Z,103017.91
2023-02-14T18:09:10.811Z,103022.13
2023-02-14T18:11:42.219Z,103012.88
2023-02-14T18:14:11.786Z,103010.53
2023-02-14T18:16:40.512Z,103011.88
2023-02-14T18:19:10.143Z,103006.84
2023-02-14T18:21:40.042Z,103014.91
2023-02-14T18:24:08.665Z,103010.00
2023-02-14T18:26:38.013Z,103005.75
2023-02-14T18:29:06.795Z,103010.06
2023-02-14T18:31:37.461Z,103007.50
2023-02-14T18:34:06.058Z,103018.06
2023-02-14T18:36:35.636Z,103015.53
2023-02-14T18:39:04.232Z,103015.56
2023-02-14T18:41:32.071Z,103003.50
2023-02-14T18:43:59.840Z,103008.06
2023-02-14T18:46:29.248Z,102994.16
2023-02-14T18:48:58.436Z,102994.84
2023-02-14T18:51:27.901Z,102993.84
2023-02-14T18:53:58.105Z,102991.84
2023-02-14T18:56:28.947Z,102994.38
2023-02-14T18:58:59.197Z,102988.03
2023-02-14T19:01:30.505Z,102987.69
2023-02-14T19:04:00.766Z,102982.81
2023-02-14T19:06:29.932Z,102989.38
2023-02-14T19:08:58.309Z,102990.72
2023-02-14T19:11:28.619Z,102981.00
2023-02-14T19:13:58.870Z,102983.84
2023-02-14T19:16:31.828Z,102984.88
2023-02-14T19:19:02.690Z,102975.13
2023-02-14T19:21:33.585Z,102974.44
2023-02-14T19:24:02.917Z,102958.66
2023-02-14T19:26:34.873Z,102965.88
2023-02-14T19:29:06.844Z,102964.38
2023-02-14T19:31:36.512Z,102969.91
2023-02-14T19:34:07.792Z,102958.84
2023-02-14T19:36:39.462Z,102966.06
2023-02-14T19:39:07.606Z,102961.06
2023-02-14T19:41:35.657Z,102965.75
2023-02-14T19:44:06.007Z,102961.56
2023-02-14T19:46:34.945Z,102958.53
2023-02-14T19:49:04.305Z,102956.00
2023-02-14T19:51:35.971Z,102956.19
2023-02-14T19:54:07.104Z,102948.47
2023-02-14T19:56:37.527Z,102954.00
2023-02-14T19:59:09.082Z,102951.31
2023-02-14T20:01:39.443Z,102951.63
2023-02-14T20:04:09.936Z,102944.06
2023-02-14T20:06:39.414Z,102948.41
2023-02-14T20:09:08.459Z,102944.22
2023-02-14T20:11:39.299Z,102950.59
2023-02-14T20:14:08.310Z,102946.22
2023-02-14T20:16:38.226Z,102940.19
2023-02-14T20:19:08.551Z,102939.53
2023-02-14T20:21:36.933Z,102936.00
2023-02-14T20:24:06.627Z,102935.31
2023-02-14T20:26:37.181Z,102939.84
2023-02-14T20:29:06.782Z,102934.66
2023-02-14T20:31:35.333Z,102934.66
2023-02-14T20:34:03.523Z,102926.91
2023-02-14T20:36:32.009Z,102926.91
2023-02-14T20:39:01.843Z,102928.94
2023-02-14T20:41:34.362Z,102925.56
2023-02-14T20:44:06.535Z,102929.28
2023-02-14T20:46:34.901Z,102924.06
2023-02-14T20:49:03.125Z,102922.56
2023-02-14T20:51:30.886Z,102919.03
2023-02-14T20:53:58.660Z,102915.66
2023-02-14T20:56:26.365Z,102906.94
2023-02-14T20:58:55.420Z,102908.78
2023-02-14T21:01:25.029Z,102907.94
2023-02-14T21:03:54.652Z,102914.31
2023-02-14T21:06:23.756Z,102903.91
2023-02-14T21:08:51.716Z,102907.28
2023-02-14T21:11:22.526Z,102914.66
2023-02-14T21:13:50.604Z,102914.81
2023-02-14T21:16:21.399Z,102903.72
2023-02-14T21:18:52.433Z,102904.75
2023-02-14T21:21:22.967Z,102907.59
2023-02-14T21:23:51.934Z,102904.22
2023-02-14T21:26:21.320Z,102885.75
2023-02-14T21:28:49.312Z,102910.09
2023-02-14T21:31:23.306Z,102896.50
2023-02-14T21:33:51.717Z,102899.19
2023-02-14T21:36:21.293Z,102899.00
2023-02-14T21:38:49.415Z,102892.97
2023-02-14T21:41:19.976Z,102896.50
2023-02-14T21:43:49.795Z,102888.59
2023-02-14T21:46:19.021Z,102884.41
2023-02-14T21:49:05.835Z,102875.50
2023-02-14T21:51:33.880Z,102880.19
2023-02-14T21:54:01.558Z,102872.31
2023-02-14T21:56:29.592Z,102866.28
2023-02-14T21:58:57.517Z,102862.75
2023-02-14T22:01:26.941Z,102866.44
2023-02-14T22:03:56.881Z,102871.13
2023-02-14T22:06:26.312Z,102868.63
2023-02-14T22:08:55.086Z,102864.25
2023-02-14T22:11:24.188Z,102866.09
2023-02-14T22:13:52.016Z,102866.44
2023-02-14T22:16:22.104Z,102871.78
2023-02-14T22:18:50.321Z,102866.75
2023-02-14T22:21:21.606Z,102866.91
2023-02-14T22:23:49.641Z,102860.88
2023-02-14T22:26:19.944Z,102859.34
2023-02-14T22:28:49.000Z,102862.19
2023-02-14T22:31:18.629Z,102873.94
2023-02-14T22:33:47.427Z,102864.22
2023-02-14T22:36:15.538Z,102853.47
2023-02-14T22:38:44.903Z,102857.34
2023-02-14T22:41:14.427Z,102865.38
2023-02-14T22:43:42.953Z,102852.13
2023-02-14T22:46:13.070Z,102859.00
2023-02-14T22:48:41.455Z,102855.50
2023-02-14T22:51:11.552Z,102852.81
2023-02-14T22:53:39.839Z,102851.97
2023-02-14T22:56:13.593Z,102846.75
2023-02-14T22:58:41.331Z,102847.59
2023-02-14T23:01:14.231Z,102859.34
2023-02-14T23:03:42.025Z,102849.59
2023-02-14T23:06:09.919Z,102846.25
2023-02-14T23:08:39.964Z,102850.94
2023-02-14T23:11:09.118Z,102850.09
2023-02-14T23:13:56.525Z,102845.41
2023-02-14T23:16:41.415Z,102850.63
2023-02-14T23:19:30.696Z,102859.50
2023-02-14T23:21:58.672Z,102855.13
2023-02-14T23:24:26.487Z,102853.47
2023-02-14T23:26:55.868Z,102855.31
2023-02-14T23:29:25.272Z,102853.78
2023-02-14T23:31:53.117Z,102852.25
2023-02-14T23:34:21.385Z,102855.13
2023-02-14T23:36:49.130Z,102848.22
2023-02-14T23:39:16.931Z,102852.91
2023-02-14T23:41:50.777Z,102855.94
2023-02-14T23:44:20.564Z,102857.94
2023-02-14T23:46:50.827Z,102858.09
2023-02-14T23:49:19.494Z,102845.84
2023-02-14T23:51:48.689Z,102853.06
2023-02-14T23:54:16.748Z,102851.53
2023-02-14T23:56:46.856Z,102845.50
2023-02-14T23:59:16.077Z,102848.50
